Time;durP1;ratioP1;P1;durP2;ratioP2;P2;SDS_P1;SDS_P2;PMS_P1;PMS_P2;Temp;Humidity;BMP_temperature;BMP_pressure;BME280_temperature;BME280_humidity;BME280_pressure;Samples;Min_cycle;Max_cycle;Signal;HPM_P1;HPM_P2
2022/12/15 00:40:32;;;;;;;25.30;17.50;;;;;;;;;;6274859;22;20410;-74
2022/12/15 00:43:26;;;;;;;23.40;16.90;;;;;;;;;;6269626;22;20504;-74
2022/12/15 01:20:33;;;;;;;22.07;17.17;;;;;;;;;;6273516;22;20488;-74
2022/12/15 01:23:22;;;;;;;22.63;16.20;;;;;;;;;;6275999;22;20503;-74
2022/12/15 01:26:10;;;;;;;21.73;17.13;;;;;;;;;;6276258;22;20491;-74
2022/12/15 01:29:00;;;;;;;20.60;17.13;;;;;;;;;;6273983;22;20449;-74
2022/12/15 01:31:50;;;;;;;24.20;17.37;;;;;;;;;;6272838;22;20439;-74
2022/12/15 01:34:44;;;;;;;23.03;16.37;;;;;;;;;;6285169;22;20413;-74
2022/12/15 01:37:33;;;;;;;19.97;14.47;;;;;;;;;;6271804;22;20414;-74
2022/12/15 01:40:49;;;;;;;18.97;14.60;;;;;;;;;;6272905;22;20408;-75
2022/12/15 01:43:41;;;;;;;16.93;13.70;;;;;;;;;;6276435;22;20520;-75
2022/12/15 01:46:30;;;;;;;20.30;13.77;;;;;;;;;;6274336;22;20971;-74
2022/12/15 01:49:28;;;;;;;20.50;14.23;;;;;;;;;;6286384;22;20435;-74
2022/12/15 01:52:17;;;;;;;21.57;13.93;;;;;;;;;;6272883;22;20448;-75
2022/12/15 01:55:12;;;;;;;19.43;14.43;;;;;;;;;;6274513;22;20421;-74
2022/12/15 01:58:08;;;;;;;19.00;13.27;;;;;;;;;;6278288;22;20417;-74
2022/12/15 02:00:57;;;;;;;19.50;14.10;;;;;;;;;;6286841;22;20421;-74
2022/12/15 02:03:47;;;;;;;19.43;13.57;;;;;;;;;;6274644;22;20432;-74
2022/12/15 02:06:37;;;;;;;20.83;13.60;;;;;;;;;;6273869;22;20444;-74
2022/12/15 02:09:27;;;;;;;18.27;12.60;;;;;;;;;;6273971;22;20769;-74
2022/12/15 02:12:21;;;;;;;18.80;14.03;;;;;;;;;;6271060;22;20456;-73
2022/12/15 02:15:19;;;;;;;16.27;12.97;;;;;;;;;;6270752;22;20409;-74
2022/12/15 02:18:12;;;;;;;19.87;13.20;;;;;;;;;;6272799;22;20417;-74
2022/12/15 02:21:06;;;;;;;18.93;13.60;;;;;;;;;;6274119;22;20783;-73
2022/12/15 02:24:05;;;;;;;17.70;13.40;;;;;;;;;;6273709;22;20448;-75
2022/12/15 02:27:15;;;;;;;19.37;14.30;;;;;;;;;;6272140;22;20406;-74
2022/12/15 02:30:19;;;;;;;19.17;14.10;;;;;;;;;;6293985;22;20416;-75
2022/12/15 02:33:23;;;;;;;17.97;14.17;;;;;;;;;;6272204;22;20455;-75
2022/12/15 02:36:17;;;;;;;18.60;13.80;;;;;;;;;;6278657;22;20407;-74
2022/12/15 02:39:11;;;;;;;16.00;13.77;;;;;;;;;;6270799;22;20465;-76
2022/12/15 02:42:01;;;;;;;16.67;13.57;;;;;;;;;;6290272;22;20448;-74
2022/12/15 02:44:52;;;;;;;18.10;13.60;;;;;;;;;;6282698;22;20417;-74
2022/12/15 02:47:52;;;;;;;16.70;12.73;;;;;;;;;;6272737;22;20504;-74
2022/12/15 02:50:51;;;;;;;19.87;13.40;;;;;;;;;;6244896;23;20424;-74
2022/12/15 02:53:51;;;;;;;16.37;12.57;;;;;;;;;;6240631;23;20434;-74
2022/12/15 02:56:45;;;;;;;19.30;12.73;;;;;;;;;;6238967;23;20421;-73
2022/12/15 02:59:36;;;;;;;19.70;13.70;;;;;;;;;;6243960;22;20436;-74
2022/12/15 03:02:36;;;;;;;19.10;13.77;;;;;;;;;;6244557;22;20449;-74
2022/12/15 03:05:32;;;;;;;19.13;13.90;;;;;;;;;;6250485;23;20413;-74
2022/12/15 03:08:20;;;;;;;18.33;13.00;;;;;;;;;;6243260;22;20441;-74
2022/12/15 03:11:12;;;;;;;18.47;14.27;;;;;;;;;;6241352;22;20421;-73
2022/12/15 03:14:04;;;;;;;18.97;13.20;;;;;;;;;;6243500;23;20828;-74
2022/12/15 03:16:52;;;;;;;21.63;15.70;;;;;;;;;;6242988;22;20426;-74
2022/12/15 03:19:46;;;;;;;18.80;14.40;;;;;;;;;;6259273;22;20433;-74
2022/12/15 03:22:41;;;;;;;18.03;14.07;;;;;;;;;;6242817;22;20457;-74
2022/12/15 03:25:29;;;;;;;21.17;14.03;;;;;;;;;;6256093;22;20414;-74
2022/12/15 03:28:19;;;;;;;20.63;14.23;;;;;;;;;;6242445;23;20424;-74
2022/12/15 03:31:10;;;;;;;21.27;14.23;;;;;;;;;;6240717;23;20451;-74
2022/12/15 03:33:59;;;;;;;20.17;14.27;;;;;;;;;;6245368;23;20430;-74
2022/12/15 03:36:56;;;;;;;17.53;13.83;;;;;;;;;;6246155;23;20529;-74
2022/12/15 03:39:48;;;;;;;19.10;14.97;;;;;;;;;;6247332;22;20474;-74
2022/12/15 03:42:51;;;;;;;18.67;14.10;;;;;;;;;;6246648;22;20667;-74
2022/12/15 03:45:41;;;;;;;16.63;13.47;;;;;;;;;;6256265;23;20409;-74
2022/12/15 03:48:30;;;;;;;19.67;14.70;;;;;;;;;;6255790;22;20990;-74
2022/12/15 03:51:21;;;;;;;17.77;14.00;;;;;;;;;;6242754;22;21136;-74
2022/12/15 03:54:10;;;;;;;19.13;14.13;;;;;;;;;;6255922;23;20405;-74
2022/12/15 03:57:04;;;;;;;18.73;14.00;;;;;;;;;;6255924;23;20461;-74
2022/12/15 03:59:54;;;;;;;19.10;13.83;;;;;;;;;;6244557;23;20425;-74
2022/12/15 04:02:42;;;;;;;20.17;14.37;;;;;;;;;;6241374;22;20787;-73
2022/12/15 04:05:35;;;;;;;18.90;13.30;;;;;;;;;;6243371;23;20403;-73
2022/12/15 04:08:25;;;;;;;19.67;14.50;;;;;;;;;;6242115;23;20445;-74
2022/12/15 04:11:15;;;;;;;20.00;15.10;;;;;;;;;;6241027;22;20501;-74
2022/12/15 04:14:05;;;;;;;19.90;14.27;;;;;;;;;;6244380;23;20520;-76
2022/12/15 04:16:54;;;;;;;20.17;14.30;;;;;;;;;;6244752;23;20908;-74
2022/12/15 04:22:54;;;;;;;21.33;15.27;;;;;;;;;;6253303;22;20436;-74
2022/12/15 05:34:37;;;;;;;21.83;15.00;;;;;;;;;;6242527;23;20443;-75
2022/12/15 05:37:26;;;;;;;19.60;14.47;;;;;;;;;;6244189;23;20426;-75
2022/12/15 05:40:15;;;;;;;23.30;14.60;;;;;;;;;;6243909;23;20449;-75
2022/12/15 05:43:05;;;;;;;21.37;15.20;;;;;;;;;;6241312;22;20446;-76
2022/12/15 05:45:53;;;;;;;19.43;15.47;;;;;;;;;;6251728;23;20414;-75
2022/12/15 05:48:45;;;;;;;20.73;14.60;;;;;;;;;;6250174;23;20460;-75
2022/12/15 05:51:40;;;;;;;20.70;15.80;;;;;;;;;;6241422;22;20441;-75
2022/12/15 05:54:31;;;;;;;20.67;15.70;;;;;;;;;;6248175;23;20438;-75
2022/12/15 05:57:21;;;;;;;20.30;14.97;;;;;;;;;;6236453;23;20494;-75
2022/12/15 06:00:10;;;;;;;19.17;14.73;;;;;;;;;;6247616;23;20435;-75
2022/12/15 06:03:02;;;;;;;18.90;14.90;;;;;;;;;;6239654;22;20444;-75
2022/12/15 06:05:51;;;;;;;19.30;15.23;;;;;;;;;;6237017;23;20416;-76
2022/12/15 06:08:46;;;;;;;18.40;14.80;;;;;;;;;;6248410;23;20439;-76
2022/12/15 06:11:37;;;;;;;18.00;14.10;;;;;;;;;;6239417;22;20954;-73
2022/12/15 06:14:26;;;;;;;26.00;16.17;;;;;;;;;;6245769;23;20789;-73
2022/12/15 06:17:19;;;;;;;20.00;14.50;;;;;;;;;;6259374;23;20880;-76
2022/12/15 06:20:08;;;;;;;19.50;14.00;;;;;;;;;;6241035;23;20437;-76
2022/12/15 06:22:57;;;;;;;19.03;14.57;;;;;;;;;;6235514;22;20441;-76
2022/12/15 06:25:50;;;;;;;18.17;14.80;;;;;;;;;;6236330;23;20420;-78
2022/12/15 06:28:45;;;;;;;19.97;14.30;;;;;;;;;;6233438;23;20439;-76
2022/12/15 06:31:34;;;;;;;20.87;14.47;;;;;;;;;;6231998;22;21371;-77
2022/12/15 06:34:22;;;;;;;21.53;14.13;;;;;;;;;;6238974;23;20942;-74
2022/12/15 06:37:11;;;;;;;21.77;14.70;;;;;;;;;;6241269;23;20417;-73
2022/12/15 06:40:01;;;;;;;20.27;14.93;;;;;;;;;;6240904;23;20445;-76
2022/12/15 06:42:53;;;;;;;22.57;15.87;;;;;;;;;;6243639;22;20473;-77
2022/12/15 06:45:48;;;;;;;20.90;14.70;;;;;;;;;;6257601;23;20421;-74
2022/12/15 06:48:41;;;;;;;18.00;14.07;;;;;;;;;;6247485;23;20530;-76
2022/12/15 06:51:31;;;;;;;21.43;14.83;;;;;;;;;;6231805;22;20462;-76
2022/12/15 06:54:21;;;;;;;20.23;14.70;;;;;;;;;;6252540;23;20449;-74
2022/12/15 06:57:12;;;;;;;18.23;13.90;;;;;;;;;;6253329;23;20414;-76
2022/12/15 07:00:02;;;;;;;20.87;14.43;;;;;;;;;;6262554;22;20434;-74
2022/12/15 07:02:51;;;;;;;24.23;15.87;;;;;;;;;;6261642;22;20517;-74
2022/12/15 07:05:40;;;;;;;22.90;14.80;;;;;;;;;;6261205;22;20431;-74
2022/12/15 07:08:30;;;;;;;19.27;14.63;;;;;;;;;;6264380;23;20628;-74
2022/12/15 07:11:28;;;;;;;18.83;14.63;;;;;;;;;;6250171;22;20425;-74
2022/12/15 07:14:19;;;;;;;19.03;14.37;;;;;;;;;;6240838;23;20456;-76
2022/12/15 07:17:14;;;;;;;21.33;14.13;;;;;;;;;;6237693;23;20506;-74
2022/12/15 07:20:07;;;;;;;19.23;13.80;;;;;;;;;;6235672;22;20434;-74
2022/12/15 07:22:59;;;;;;;21.43;16.10;;;;;;;;;;6242427;22;20453;-74
2022/12/15 07:25:50;;;;;;;19.50;14.60;;;;;;;;;;6240314;23;20497;-74
2022/12/15 07:28:39;;;;;;;22.63;14.90;;;;;;;;;;6250217;23;20440;-74
2022/12/15 07:31:28;;;;;;;20.10;14.57;;;;;;;;;;6236883;22;20411;-74
2022/12/15 07:34:19;;;;;;;21.03;15.00;;;;;;;;;;6243025;23;20445;-74
2022/12/15 07:37:09;;;;;;;18.23;14.53;;;;;;;;;;6237163;23;20446;-76
2022/12/15 07:39:58;;;;;;;20.37;14.27;;;;;;;;;;6239078;23;20439;-74
2022/12/15 07:42:49;;;;;;;21.23;14.73;;;;;;;;;;6240700;22;20442;-76
2022/12/15 07:48:40;;;;;;;20.57;15.47;;;;;;;;;;6244437;23;20429;-74
2022/12/15 07:51:32;;;;;;;21.80;16.30;;;;;;;;;;6244513;22;20419;-74
2022/12/15 07:54:22;;;;;;;22.53;16.30;;;;;;;;;;6243744;23;20438;-75
2022/12/15 07:57:15;;;;;;;20.30;15.20;;;;;;;;;;6245243;23;20977;-73
2022/12/15 08:00:04;;;;;;;20.70;15.43;;;;;;;;;;6250549;23;20464;-74
2022/12/15 08:02:56;;;;;;;17.53;14.37;;;;;;;;;;6243025;22;20532;-74
2022/12/15 08:05:45;;;;;;;18.97;14.50;;;;;;;;;;6246150;22;20407;-74
2022/12/15 08:08:35;;;;;;;20.77;15.07;;;;;;;;;;6251019;23;20433;-75
2022/12/15 08:11:24;;;;;;;18.60;14.73;;;;;;;;;;6248815;22;20472;-74
2022/12/15 08:14:14;;;;;;;20.13;14.47;;;;;;;;;;6244541;23;20563;-74
2022/12/15 08:17:06;;;;;;;21.43;15.80;;;;;;;;;;6252839;23;20472;-74
2022/12/15 08:19:54;;;;;;;20.17;15.10;;;;;;;;;;6241088;23;20917;-75
2022/12/15 08:22:46;;;;;;;18.67;14.30;;;;;;;;;;6244380;22;20470;-74
2022/12/15 08:25:39;;;;;;;18.07;14.90;;;;;;;;;;6254267;22;20411;-76
2022/12/15 08:28:28;;;;;;;19.20;14.50;;;;;;;;;;6238899;23;20437;-77
2022/12/15 08:31:22;;;;;;;23.77;15.27;;;;;;;;;;6253962;22;20489;-75
2022/12/15 08:34:12;;;;;;;20.93;14.70;;;;;;;;;;6242211;23;20461;-75
2022/12/15 08:37:01;;;;;;;17.63;14.07;;;;;;;;;;6244027;22;20585;-75
2022/12/15 08:39:51;;;;;;;21.10;14.50;;;;;;;;;;6254533;22;20456;-76
2022/12/15 08:42:44;;;;;;;20.07;16.00;;;;;;;;;;6273647;22;20448;-76
2022/12/15 08:45:44;;;;;;;21.60;14.60;;;;;;;;;;6282574;22;20674;-76
2022/12/15 08:48:36;;;;;;;20.10;15.20;;;;;;;;;;6284294;22;20517;-76
2022/12/15 08:51:28;;;;;;;22.00;14.90;;;;;;;;;;6270255;22;20921;-76
2022/12/15 08:54:21;;;;;;;21.00;15.00;;;;;;;;;;6272272;22;20452;-76
2022/12/15 09:00:18;;;;;;;20.30;15.40;;;;;;;;;;6270357;22;20448;-77
2022/12/15 09:03:09;;;;;;;22.10;15.07;;;;;;;;;;6273673;22;20441;-77
2022/12/15 09:06:02;;;;;;;18.97;15.20;;;;;;;;;;6273541;22;20410;-77
2022/12/15 09:08:55;;;;;;;18.10;15.17;;;;;;;;;;6281179;22;21041;-77
2022/12/15 09:11:45;;;;;;;20.67;14.27;;;;;;;;;;6281151;22;20467;-77
2022/12/15 09:14:33;;;;;;;19.23;15.20;;;;;;;;;;6275312;22;20430;-77
2022/12/15 09:17:25;;;;;;;19.63;14.80;;;;;;;;;;6283543;22;20831;-76
2022/12/15 09:20:15;;;;;;;17.33;14.70;;;;;;;;;;6280246;22;20841;-77
2022/12/15 09:23:05;;;;;;;20.67;14.57;;;;;;;;;;6276552;22;20441;-77
2022/12/15 09:26:05;;;;;;;19.60;14.83;;;;;;;;;;6276206;22;21044;-77
2022/12/15 09:28:54;;;;;;;18.63;14.70;;;;;;;;;;6282774;22;20430;-77
2022/12/15 09:31:45;;;;;;;18.30;14.63;;;;;;;;;;6272116;22;20446;-76
2022/12/15 09:34:35;;;;;;;20.23;15.90;;;;;;;;;;6272554;22;21062;-77
2022/12/15 09:37:29;;;;;;;19.53;15.10;;;;;;;;;;6274871;22;20406;-77
2022/12/15 09:40:20;;;;;;;18.80;15.43;;;;;;;;;;6273562;22;21002;-78
2022/12/15 09:43:16;;;;;;;18.80;13.93;;;;;;;;;;6276909;22;20449;-77
2022/12/15 09:46:26;;;;;;;18.63;13.87;;;;;;;;;;6287077;22;20415;-78
2022/12/15 09:49:22;;;;;;;19.27;14.93;;;;;;;;;;6277393;22;20454;-78
2022/12/15 09:52:13;;;;;;;18.23;13.80;;;;;;;;;;6278883;22;20446;-78
2022/12/15 09:55:07;;;;;;;17.17;13.13;;;;;;;;;;6279360;22;20519;-78
2022/12/15 09:57:57;;;;;;;19.80;13.90;;;;;;;;;;6285820;22;20432;-77
2022/12/15 10:00:54;;;;;;;17.30;13.23;;;;;;;;;;6273285;22;20449;-78
2022/12/15 10:03:50;;;;;;;17.83;13.50;;;;;;;;;;6267327;22;21330;-78
2022/12/15 10:06:41;;;;;;;16.80;14.00;;;;;;;;;;6275857;22;20403;-79
2022/12/15 10:09:31;;;;;;;19.03;13.97;;;;;;;;;;6273127;22;20434;-79
2022/12/15 10:12:22;;;;;;;16.50;13.73;;;;;;;;;;6273001;22;21396;-78
2022/12/15 10:15:15;;;;;;;20.17;14.70;;;;;;;;;;6280587;22;20438;-78
2022/12/15 10:18:14;;;;;;;18.90;15.20;;;;;;;;;;6281106;22;20415;-78
2022/12/15 10:21:06;;;;;;;17.13;13.90;;;;;;;;;;6273056;22;20418;-79
2022/12/15 10:24:04;;;;;;;17.80;14.67;;;;;;;;;;6271935;22;20439;-77
2022/12/15 10:26:59;;;;;;;15.90;14.20;;;;;;;;;;6271706;22;20410;-78
2022/12/15 10:29:51;;;;;;;16.93;15.07;;;;;;;;;;6274087;22;20432;-77
2022/12/15 10:32:45;;;;;;;22.47;14.70;;;;;;;;;;6268280;22;20566;-77
2022/12/15 10:35:47;;;;;;;17.70;14.77;;;;;;;;;;6283458;22;20467;-78
2022/12/15 10:38:41;;;;;;;17.53;14.63;;;;;;;;;;6281403;22;20441;-78
2022/12/15 10:41:32;;;;;;;16.67;14.77;;;;;;;;;;6271981;22;20456;-77
2022/12/15 10:44:27;;;;;;;21.37;15.07;;;;;;;;;;6268389;22;20415;-78
2022/12/15 10:47:21;;;;;;;20.40;15.60;;;;;;;;;;6269904;22;20509;-77
2022/12/15 10:50:20;;;;;;;18.10;15.20;;;;;;;;;;6270279;22;20439;-77
2022/12/15 10:53:30;;;;;;;20.20;15.30;;;;;;;;;;6270399;22;20798;-77
2022/12/15 10:56:24;;;;;;;22.70;14.60;;;;;;;;;;6282332;22;20441;-77
2022/12/15 10:59:24;;;;;;;18.77;14.50;;;;;;;;;;6283073;22;20437;-77
2022/12/15 11:02:31;;;;;;;16.30;14.73;;;;;;;;;;6271180;22;20785;-79
2022/12/15 11:05:24;;;;;;;18.27;14.67;;;;;;;;;;6274627;22;20787;-78
2022/12/15 11:08:16;;;;;;;20.17;13.43;;;;;;;;;;6280564;22;20410;-77
2022/12/15 11:14:42;;;;;;;18.70;13.77;;;;;;;;;;6273749;22;20444;-75
2022/12/15 11:17:40;;;;;;;17.83;13.50;;;;;;;;;;6277877;22;20420;-78
2022/12/15 11:20:30;;;;;;;13.20;11.40;;;;;;;;;;6275059;22;20431;-80
2022/12/15 11:23:28;;;;;;;19.03;13.13;;;;;;;;;;6272235;22;20470;-80
2022/12/15 11:26:24;;;;;;;14.07;11.77;;;;;;;;;;6285873;22;20416;-78
2022/12/15 11:29:19;;;;;;;18.30;14.13;;;;;;;;;;6293921;22;20437;-78
2022/12/15 11:32:12;;;;;;;16.87;12.70;;;;;;;;;;6295272;22;20561;-78
2022/12/15 11:35:07;;;;;;;15.70;13.17;;;;;;;;;;6292350;22;20408;-77
2022/12/15 11:38:14;;;;;;;14.20;12.07;;;;;;;;;;6277887;22;20412;-77
2022/12/15 11:41:06;;;;;;;14.07;12.00;;;;;;;;;;6271640;22;20412;-76
2022/12/15 11:44:09;;;;;;;13.70;11.80;;;;;;;;;;6273779;22;20433;-75
2022/12/15 11:47:05;;;;;;;15.50;12.90;;;;;;;;;;6282571;22;20411;-75
2022/12/15 11:50:13;;;;;;;14.63;12.77;;;;;;;;;;6281537;22;20441;-76
2022/12/15 11:53:10;;;;;;;16.00;13.13;;;;;;;;;;6272029;22;20448;-75
2022/12/15 11:56:06;;;;;;;14.40;11.23;;;;;;;;;;6272084;22;20952;-73
2022/12/15 11:59:09;;;;;;;12.70;11.37;;;;;;;;;;6271073;22;20452;-75
2022/12/15 12:02:11;;;;;;;15.60;12.10;;;;;;;;;;6270034;22;20444;-74
2022/12/15 12:05:07;;;;;;;14.80;11.40;;;;;;;;;;6270859;22;20405;-75
2022/12/15 12:08:02;;;;;;;13.37;11.47;;;;;;;;;;6270384;22;20896;-73
2022/12/15 12:10:56;;;;;;;14.30;12.67;;;;;;;;;;6275029;22;20748;-74
2022/12/15 12:13:53;;;;;;;17.67;12.40;;;;;;;;;;6274072;22;20524;-76
2022/12/15 12:16:50;;;;;;;13.93;11.93;;;;;;;;;;6281841;22;20444;-75
2022/12/15 12:19:44;;;;;;;14.73;12.10;;;;;;;;;;6272347;22;20424;-77
2022/12/15 12:22:41;;;;;;;14.93;12.87;;;;;;;;;;6269681;22;20498;-75
2022/12/15 12:25:38;;;;;;;15.90;11.80;;;;;;;;;;6282500;22;20413;-74
2022/12/15 12:28:33;;;;;;;15.13;11.93;;;;;;;;;;6269074;22;20813;-76
2022/12/15 12:31:27;;;;;;;12.83;11.53;;;;;;;;;;6267356;22;21056;-75
2022/12/15 12:34:24;;;;;;;16.87;12.00;;;;;;;;;;6273972;22;20506;-76
2022/12/15 12:37:21;;;;;;;13.07;11.67;;;;;;;;;;6273725;22;20434;-76
2022/12/15 12:40:17;;;;;;;16.57;12.20;;;;;;;;;;6273613;22;20445;-76
2022/12/15 12:43:08;;;;;;;18.40;12.17;;;;;;;;;;6269848;22;20441;-76
2022/12/15 12:46:04;;;;;;;15.83;11.83;;;;;;;;;;6268983;22;20409;-76
2022/12/15 12:48:56;;;;;;;13.50;12.07;;;;;;;;;;6279635;22;20439;-76
2022/12/15 12:51:50;;;;;;;13.60;12.13;;;;;;;;;;6267657;22;20527;-75
2022/12/15 12:54:52;;;;;;;13.30;11.90;;;;;;;;;;6271401;22;20417;-76
2022/12/15 12:57:45;;;;;;;14.77;12.23;;;;;;;;;;6273428;22;20797;-77
2022/12/15 13:00:38;;;;;;;15.20;12.37;;;;;;;;;;6285735;22;20432;-77
2022/12/15 13:03:30;;;;;;;13.00;11.57;;;;;;;;;;6275088;22;20445;-76
2022/12/15 13:06:23;;;;;;;16.50;11.87;;;;;;;;;;6284599;22;20420;-77
2022/12/15 13:09:22;;;;;;;14.70;11.87;;;;;;;;;;6276985;22;20437;-77
2022/12/15 13:12:29;;;;;;;15.30;10.90;;;;;;;;;;6279584;22;20437;-77
2022/12/15 13:15:39;;;;;;;15.90;11.00;;;;;;;;;;6272260;22;20424;-76
2022/12/15 13:18:51;;;;;;;12.63;11.43;;;;;;;;;;6282138;22;20426;-76
2022/12/15 13:21:55;;;;;;;13.87;11.20;;;;;;;;;;6274493;22;20775;-77
2022/12/15 13:24:47;;;;;;;13.50;12.10;;;;;;;;;;6273831;22;20411;-76
2022/12/15 13:27:39;;;;;;;14.30;10.53;;;;;;;;;;6272464;22;20430;-76
2022/12/15 13:33:44;;;;;;;12.10;10.43;;;;;;;;;;6283294;22;20410;-77
2022/12/15 13:37:07;;;;;;;12.70;10.00;;;;;;;;;;6280137;22;20456;-76
2022/12/15 13:40:01;;;;;;;13.90;11.20;;;;;;;;;;6284683;22;20474;-76
2022/12/15 13:42:56;;;;;;;11.73;10.53;;;;;;;;;;6275756;22;20441;-77
2022/12/15 13:45:52;;;;;;;14.63;11.17;;;;;;;;;;6276206;22;20929;-77
2022/12/15 13:48:41;;;;;;;11.57;10.30;;;;;;;;;;6274233;22;20430;-76
2022/12/15 13:51:35;;;;;;;12.23;10.17;;;;;;;;;;6272953;22;20801;-77
2022/12/15 13:54:25;;;;;;;16.10;10.87;;;;;;;;;;6272796;22;20504;-76
2022/12/15 13:57:18;;;;;;;16.17;10.63;;;;;;;;;;6274620;22;20939;-77
2022/12/15 14:00:17;;;;;;;11.53;9.70;;;;;;;;;;6273392;22;20430;-77
2022/12/15 14:03:06;;;;;;;11.10;9.23;;;;;;;;;;6272902;22;20452;-76
2022/12/15 14:05:58;;;;;;;11.40;10.20;;;;;;;;;;6273331;22;20409;-76
2022/12/15 14:08:51;;;;;;;11.93;10.60;;;;;;;;;;6275267;22;20835;-77
2022/12/15 14:11:52;;;;;;;14.23;10.30;;;;;;;;;;6272098;22;20440;-77
2022/12/15 14:14:51;;;;;;;11.37;9.60;;;;;;;;;;6282670;22;20415;-76
2022/12/15 14:17:51;;;;;;;11.13;10.03;;;;;;;;;;6270024;22;20433;-76
2022/12/15 14:20:45;;;;;;;13.20;10.40;;;;;;;;;;6269520;22;20416;-76
2022/12/15 14:23:42;;;;;;;14.33;9.97;;;;;;;;;;6270995;22;20433;-78
2022/12/15 14:26:57;;;;;;;11.20;10.00;;;;;;;;;;6269631;22;20416;-76
2022/12/15 14:29:47;;;;;;;12.33;9.90;;;;;;;;;;6269214;22;20959;-75
2022/12/15 14:33:02;;;;;;;11.67;9.77;;;;;;;;;;6267472;22;20439;-76
2022/12/15 14:35:52;;;;;;;11.70;9.30;;;;;;;;;;6269238;22;20405;-76
2022/12/15 14:38:45;;;;;;;12.40;10.77;;;;;;;;;;6280215;22;20433;-75
2022/12/15 14:41:35;;;;;;;12.50;10.20;;;;;;;;;;6270938;22;20437;-75
2022/12/15 14:44:39;;;;;;;10.67;9.57;;;;;;;;;;6270719;22;20410;-76
2022/12/15 14:47:35;;;;;;;10.70;9.60;;;;;;;;;;6280310;22;20414;-76
2022/12/15 14:50:24;;;;;;;10.30;9.20;;;;;;;;;;6279724;22;20439;-77
2022/12/15 14:53:15;;;;;;;13.07;10.07;;;;;;;;;;6268258;22;20442;-77
2022/12/15 14:56:21;;;;;;;11.37;9.10;;;;;;;;;;6279124;22;20413;-77
2022/12/15 14:59:19;;;;;;;10.67;9.60;;;;;;;;;;6273584;22;20553;-76
2022/12/15 15:02:13;;;;;;;11.37;10.17;;;;;;;;;;6271376;22;20442;-75
2022/12/15 15:05:06;;;;;;;13.50;10.20;;;;;;;;;;6277344;22;20413;-78
2022/12/15 15:07:55;;;;;;;12.10;10.30;;;;;;;;;;6271940;22;21020;-77
2022/12/15 15:10:45;;;;;;;12.50;10.47;;;;;;;;;;6286489;22;20410;-77
2022/12/15 15:13:36;;;;;;;12.80;9.77;;;;;;;;;;6273083;22;20446;-77
2022/12/15 15:16:31;;;;;;;12.50;10.23;;;;;;;;;;6276893;22;20409;-76
2022/12/15 15:19:23;;;;;;;12.93;10.83;;;;;;;;;;6288444;22;20438;-77
2022/12/15 15:22:22;;;;;;;12.50;10.27;;;;;;;;;;6282144;22;20437;-77
2022/12/15 15:25:31;;;;;;;11.47;10.10;;;;;;;;;;6277872;22;20433;-74
2022/12/15 15:28:28;;;;;;;12.67;10.67;;;;;;;;;;6284510;22;20414;-76
2022/12/15 15:31:29;;;;;;;10.70;9.70;;;;;;;;;;6283376;22;20480;-76
2022/12/15 15:34:33;;;;;;;11.43;10.23;;;;;;;;;;6272005;22;20764;-76
2022/12/15 15:37:29;;;;;;;13.63;10.17;;;;;;;;;;6272186;22;20575;-76
2022/12/15 15:40:19;;;;;;;15.50;11.83;;;;;;;;;;6271215;22;20437;-76
2022/12/15 15:43:10;;;;;;;11.53;10.27;;;;;;;;;;6273543;22;21183;-77
2022/12/15 15:46:00;;;;;;;12.30;10.07;;;;;;;;;;6285221;22;20417;-76
2022/12/15 15:48:52;;;;;;;11.60;10.23;;;;;;;;;;6284141;22;20535;-76
2022/12/15 15:51:40;;;;;;;12.97;10.70;;;;;;;;;;6273904;22;20444;-76
2022/12/15 15:54:36;;;;;;;15.80;10.70;;;;;;;;;;6278603;22;20413;-77
2022/12/15 15:57:25;;;;;;;13.73;11.30;;;;;;;;;;6278685;22;20491;-76
2022/12/15 16:00:19;;;;;;;12.27;9.93;;;;;;;;;;6266056;22;20445;-76
2022/12/15 16:03:17;;;;;;;14.57;11.07;;;;;;;;;;6262928;22;20442;-77
2022/12/15 16:06:12;;;;;;;12.43;10.80;;;;;;;;;;6285515;22;20402;-76
2022/12/15 16:09:02;;;;;;;12.40;10.73;;;;;;;;;;6282841;22;20437;-77
2022/12/15 16:11:52;;;;;;;13.90;10.90;;;;;;;;;;6279521;22;20437;-76
2022/12/15 16:14:45;;;;;;;15.47;11.10;;;;;;;;;;6269567;22;20416;-75
2022/12/15 16:17:34;;;;;;;13.50;11.87;;;;;;;;;;6271401;22;20646;-77
2022/12/15 16:20:24;;;;;;;13.40;11.43;;;;;;;;;;6270182;22;20433;-77
2022/12/15 16:23:14;;;;;;;12.87;11.17;;;;;;;;;;6272850;22;20446;-76
2022/12/15 16:26:04;;;;;;;12.57;10.57;;;;;;;;;;6269489;22;20417;-77
2022/12/15 16:28:54;;;;;;;13.43;12.13;;;;;;;;;;6267213;22;20437;-76
2022/12/15 16:31:45;;;;;;;12.47;11.17;;;;;;;;;;6274062;22;20437;-75
2022/12/15 16:34:35;;;;;;;14.40;12.70;;;;;;;;;;6270051;22;20415;-74
2022/12/15 16:37:27;;;;;;;14.47;11.50;;;;;;;;;;6269710;22;20414;-75
2022/12/15 16:40:20;;;;;;;13.33;11.70;;;;;;;;;;6270648;22;20442;-75
2022/12/15 16:43:14;;;;;;;14.10;12.00;;;;;;;;;;6271423;22;20441;-76
2022/12/15 16:46:04;;;;;;;13.90;12.37;;;;;;;;;;6271473;22;20409;-75
2022/12/15 16:48:53;;;;;;;15.10;12.20;;;;;;;;;;6266525;22;20429;-76
2022/12/15 16:51:44;;;;;;;16.97;12.67;;;;;;;;;;6269057;22;20433;-79
2022/12/15 16:54:36;;;;;;;17.07;13.97;;;;;;;;;;6274262;22;21267;-75
2022/12/15 16:57:26;;;;;;;19.60;14.00;;;;;;;;;;6279920;22;20489;-75
2022/12/15 17:00:19;;;;;;;15.00;13.33;;;;;;;;;;6267696;22;20432;-77
2022/12/15 17:03:13;;;;;;;14.20;12.70;;;;;;;;;;6268914;22;20936;-75
2022/12/15 17:06:06;;;;;;;17.70;13.33;;;;;;;;;;6269839;22;20521;-76
2022/12/15 17:08:55;;;;;;;15.70;13.17;;;;;;;;;;6277303;22;20433;-75
2022/12/15 17:11:45;;;;;;;14.90;13.30;;;;;;;;;;6277736;22;20926;-74
2022/12/15 17:14:36;;;;;;;15.80;13.53;;;;;;;;;;6271296;22;21179;-75
2022/12/15 17:17:28;;;;;;;17.30;14.53;;;;;;;;;;6278545;22;20417;-75
2022/12/15 17:20:22;;;;;;;14.30;12.90;;;;;;;;;;6281283;22;20763;-75
2022/12/15 17:23:22;;;;;;;17.70;15.33;;;;;;;;;;6273994;22;20440;-74
2022/12/15 17:26:16;;;;;;;18.03;14.10;;;;;;;;;;6277880;22;20553;-74
2022/12/15 17:29:22;;;;;;;18.10;14.63;;;;;;;;;;6271217;22;20833;-77
2022/12/15 17:32:19;;;;;;;17.27;14.40;;;;;;;;;;6265542;22;20441;-75
2022/12/15 17:35:22;;;;;;;16.10;14.40;;;;;;;;;;6272481;22;20413;-75
2022/12/15 17:38:15;;;;;;;15.70;14.10;;;;;;;;;;6269413;22;20440;-76
2022/12/15 17:41:03;;;;;;;15.90;14.30;;;;;;;;;;6272262;22;20914;-75
2022/12/15 17:44:22;;;;;;;17.10;14.70;;;;;;;;;;6265762;22;20437;-74
2022/12/15 17:47:29;;;;;;;18.23;13.77;;;;;;;;;;6269500;22;20402;-77
2022/12/15 17:50:22;;;;;;;16.27;14.57;;;;;;;;;;6281177;22;20430;-75
2022/12/15 17:53:13;;;;;;;17.70;14.67;;;;;;;;;;6274963;22;20459;-75
2022/12/15 17:56:01;;;;;;;18.63;15.43;;;;;;;;;;6281373;22;20791;-75
2022/12/15 17:58:53;;;;;;;19.83;15.63;;;;;;;;;;6280777;22;20449;-76
2022/12/15 18:01:51;;;;;;;19.10;15.83;;;;;;;;;;6274841;22;20438;-76
2022/12/15 18:04:44;;;;;;;16.83;14.37;;;;;;;;;;6277278;22;20443;-74
2022/12/15 18:07:32;;;;;;;20.90;16.70;;;;;;;;;;6273315;22;20418;-76
2022/12/15 18:10:35;;;;;;;18.20;15.80;;;;;;;;;;6272113;22;21121;-75
2022/12/15 18:13:24;;;;;;;18.27;15.00;;;;;;;;;;6269198;22;20534;-74
2022/12/15 18:16:24;;;;;;;19.30;15.10;;;;;;;;;;6267556;22;20426;-75
2022/12/15 18:19:13;;;;;;;18.57;14.90;;;;;;;;;;6278566;22;20461;-76
2022/12/15 18:22:01;;;;;;;18.50;15.90;;;;;;;;;;6275425;22;20442;-76
2022/12/15 18:24:58;;;;;;;17.57;15.63;;;;;;;;;;6268477;22;20418;-77
2022/12/15 18:27:52;;;;;;;17.97;16.00;;;;;;;;;;6267279;22;20467;-74
2022/12/15 18:30:44;;;;;;;17.50;15.53;;;;;;;;;;6263994;22;20420;-73
2022/12/15 18:33:33;;;;;;;19.67;16.60;;;;;;;;;;6262956;22;20442;-72
2022/12/15 18:36:23;;;;;;;18.00;15.40;;;;;;;;;;6263969;22;20421;-72
2022/12/15 18:39:18;;;;;;;19.00;15.87;;;;;;;;;;6278583;22;21144;-74
2022/12/15 18:42:10;;;;;;;19.80;16.93;;;;;;;;;;6275932;22;20562;-75
2022/12/15 18:45:04;;;;;;;19.57;16.57;;;;;;;;;;6269029;22;20417;-72
2022/12/15 18:47:55;;;;;;;20.97;16.40;;;;;;;;;;6277642;22;20409;-72
2022/12/15 18:50:47;;;;;;;18.10;15.43;;;;;;;;;;6276481;22;20424;-73
2022/12/15 18:53:39;;;;;;;17.90;15.53;;;;;;;;;;6269305;22;20934;-72
2022/12/15 18:56:34;;;;;;;17.80;14.90;;;;;;;;;;6265907;22;20446;-73
2022/12/15 18:59:23;;;;;;;21.97;16.90;;;;;;;;;;6264164;22;20445;-71
2022/12/15 19:02:15;;;;;;;18.50;16.03;;;;;;;;;;6267035;22;21045;-73
2022/12/15 19:05:04;;;;;;;18.40;16.33;;;;;;;;;;6267491;22;20414;-72
2022/12/15 19:07:57;;;;;;;20.53;16.70;;;;;;;;;;6267675;22;20416;-74
2022/12/15 19:10:53;;;;;;;21.50;17.90;;;;;;;;;;6269055;22;20410;-74
2022/12/15 19:13:44;;;;;;;20.37;16.43;;;;;;;;;;6266772;22;20611;-76
2022/12/15 19:22:52;;;;;;;20.87;16.70;;;;;;;;;;6263419;22;21024;-73
2022/12/15 19:25:47;;;;;;;19.90;16.60;;;;;;;;;;6267156;22;20468;-74
2022/12/15 19:28:35;;;;;;;21.07;15.93;;;;;;;;;;6267788;22;20950;-73
2022/12/15 19:31:24;;;;;;;20.30;16.20;;;;;;;;;;6268410;22;20448;-74
2022/12/15 19:34:14;;;;;;;18.53;15.93;;;;;;;;;;6269636;22;20410;-75
2022/12/15 19:37:08;;;;;;;20.10;17.13;;;;;;;;;;6269342;22;20408;-75